createdAt,value
2017-08-05T00:00:10.358Z,12.72
2017-08-05T00:01:10.321Z,12.71
2017-08-05T00:02:10.380Z,12.71
2017-08-05T00:03:10.345Z,12.71
2017-08-05T00:04:10.366Z,12.71
2017-08-05T00:05:10.355Z,12.72
2017-08-05T00:06:10.388Z,12.75
2017-08-05T00:07:10.287Z,12.80
2017-08-05T00:08:10.345Z,12.83
2017-08-05T00:09:10.358Z,12.84
2017-08-05T00:10:10.338Z,12.89
2017-08-05T00:11:10.360Z,13.00
2017-08-05T00:12:10.381Z,13.05
2017-08-05T00:13:10.324Z,13.05
2017-08-05T00:14:10.331Z,13.07
2017-08-05T00:15:10.321Z,13.09
2017-08-05T00:16:10.316Z,13.12
2017-08-05T00:17:10.350Z,13.10
2017-08-05T00:18:10.289Z,13.12
2017-08-05T00:19:10.354Z,13.09
2017-08-05T00:20:10.322Z,13.05
2017-08-05T00:21:10.314Z,13.03
2017-08-05T00:22:10.351Z,13.05
2017-08-05T00:23:10.359Z,13.07
2017-08-05T00:24:10.298Z,13.09
2017-08-05T00:25:10.294Z,13.10
2017-08-05T00:26:10.326Z,13.13
2017-08-05T00:27:10.315Z,13.16
2017-08-05T00:28:10.297Z,13.16
2017-08-05T00:29:10.363Z,13.17
2017-08-05T00:30:10.323Z,13.14
2017-08-05T00:31:10.277Z,13.14
2017-08-05T00:32:10.328Z,13.14
2017-08-05T00:33:10.272Z,13.13
2017-08-05T00:34:10.277Z,13.12
2017-08-05T00:35:10.301Z,13.10
2017-08-05T00:36:10.372Z,13.10
2017-08-05T00:37:10.358Z,13.13
2017-08-05T00:38:10.338Z,13.14
2017-08-05T00:39:10.399Z,13.16
2017-08-05T00:40:10.378Z,13.18
2017-08-05T00:41:10.314Z,13.18
2017-08-05T00:42:10.315Z,13.20
2017-08-05T00:43:10.409Z,13.18
2017-08-05T00:44:10.348Z,13.20
2017-08-05T00:45:10.319Z,13.20
2017-08-05T00:46:10.310Z,13.21
2017-08-05T00:47:10.336Z,13.21
2017-08-05T00:48:10.423Z,13.23
2017-08-05T00:49:10.378Z,13.28
2017-08-05T00:50:10.401Z,13.31
2017-08-05T00:51:10.348Z,13.29
2017-08-05T00:52:10.353Z,13.32
2017-08-05T00:53:10.390Z,13.36
2017-08-05T00:54:10.405Z,13.42
2017-08-05T00:55:10.416Z,13.49
2017-08-05T00:56:10.347Z,13.51
2017-08-05T00:57:10.344Z,13.56
2017-08-05T00:58:10.339Z,13.56
2017-08-05T00:59:10.318Z,13.56
2017-08-05T01:00:10.382Z,13.59
2017-08-05T01:01:10.288Z,13.62
2017-08-05T01:02:10.296Z,13.64
2017-08-05T01:03:10.387Z,13.65
2017-08-05T01:04:10.341Z,13.65
2017-08-05T01:05:10.295Z,13.65
2017-08-05T01:06:10.345Z,13.64
2017-08-05T01:07:10.384Z,13.59
2017-08-05T01:08:10.388Z,13.57
2017-08-05T01:09:10.384Z,13.56
2017-08-05T01:10:10.385Z,13.54
2017-08-05T01:11:10.354Z,13.49
2017-08-05T01:12:10.352Z,13.46
2017-08-05T01:13:10.413Z,13.45
2017-08-05T01:14:10.387Z,13.40
2017-08-05T01:15:10.325Z,13.38
2017-08-05T01:16:10.324Z,13.36
2017-08-05T01:17:10.362Z,13.31
2017-08-05T01:18:10.356Z,13.28
2017-08-05T01:19:10.331Z,13.27
2017-08-05T01:20:10.364Z,13.24
2017-08-05T01:21:10.352Z,13.24
2017-08-05T01:22:10.349Z,13.21
2017-08-05T01:23:10.400Z,13.21
2017-08-05T01:24:10.358Z,13.17
2017-08-05T01:25:10.341Z,13.14
2017-08-05T01:26:10.392Z,13.10
2017-08-05T01:27:10.357Z,13.12
2017-08-05T01:28:10.361Z,13.10
2017-08-05T01:29:10.357Z,13.06
2017-08-05T01:30:10.356Z,13.05
2017-08-05T01:31:10.361Z,13.05
2017-08-05T01:32:10.359Z,13.03
2017-08-05T01:33:10.364Z,13.03
2017-08-05T01:34:10.398Z,13.02
2017-08-05T01:35:10.336Z,12.99
2017-08-05T01:36:10.364Z,12.98
2017-08-05T01:37:10.361Z,12.99
2017-08-05T01:38:10.311Z,13.00
2017-08-05T01:39:10.351Z,13.02
2017-08-05T01:40:10.324Z,13.05
2017-08-05T01:41:10.352Z,13.05
2017-08-05T01:42:10.296Z,13.03
2017-08-05T01:43:10.369Z,13.03
2017-08-05T01:44:10.372Z,13.02
2017-08-05T01:45:10.372Z,13.00
2017-08-05T01:46:10.353Z,13.00
2017-08-05T01:47:10.410Z,13.02
2017-08-05T01:48:10.408Z,13.05
2017-08-05T01:49:10.359Z,13.07
2017-08-05T01:50:10.370Z,13.06
2017-08-05T01:51:10.347Z,13.05
2017-08-05T01:52:10.350Z,13.05
2017-08-05T01:53:10.357Z,13.10
2017-08-05T01:54:10.318Z,13.05
2017-08-05T01:55:10.303Z,13.00
2017-08-05T01:56:10.366Z,12.98
2017-08-05T01:57:10.378Z,12.94
2017-08-05T01:58:10.453Z,12.87
2017-08-05T01:59:10.441Z,12.84
2017-08-05T02:00:10.451Z,12.80
2017-08-05T02:01:10.367Z,12.79
2017-08-05T02:02:10.451Z,12.76
2017-08-05T02:03:10.381Z,12.75
2017-08-05T02:04:10.446Z,12.72
2017-08-05T02:05:10.397Z,12.68
2017-08-05T02:06:10.379Z,12.66
2017-08-05T02:07:10.383Z,12.62
2017-08-05T02:08:10.417Z,12.61
2017-08-05T02:09:10.411Z,12.60
2017-08-05T02:10:10.380Z,12.58
2017-08-05T02:11:10.419Z,12.58
2017-08-05T02:12:10.420Z,12.57
2017-08-05T02:13:10.385Z,12.55
2017-08-05T02:14:10.368Z,12.54
2017-08-05T02:15:10.421Z,12.54
2017-08-05T02:16:10.421Z,12.51
2017-08-05T02:17:10.423Z,12.50
2017-08-05T02:18:10.357Z,12.46
2017-08-05T02:19:10.385Z,12.44
2017-08-05T02:20:10.398Z,12.46
2017-08-05T02:21:10.387Z,12.44
2017-08-05T02:22:10.388Z,12.43
2017-08-05T02:23:10.361Z,12.39
2017-08-05T02:24:10.429Z,12.39
2017-08-05T02:25:10.427Z,12.37
2017-08-05T02:26:10.389Z,12.37
2017-08-05T02:27:10.441Z,12.39
2017-08-05T02:28:10.473Z,12.40
2017-08-05T02:29:10.396Z,12.42
2017-08-05T02:30:10.373Z,12.43
2017-08-05T02:31:10.379Z,12.44
2017-08-05T02:32:10.429Z,12.44
2017-08-05T02:33:10.464Z,12.43
2017-08-05T02:34:10.463Z,12.43
2017-08-05T02:35:10.377Z,12.46
2017-08-05T02:36:10.401Z,12.47
2017-08-05T02:37:10.398Z,12.47
2017-08-05T02:38:10.373Z,12.47
2017-08-05T02:39:10.404Z,12.47
2017-08-05T02:40:10.399Z,12.44
2017-08-05T02:41:10.411Z,12.46
2017-08-05T02:42:10.400Z,12.44
2017-08-05T02:43:10.404Z,12.44
2017-08-05T02:44:10.408Z,12.44
2017-08-05T02:45:10.435Z,12.37
2017-08-05T02:46:10.418Z,12.35
2017-08-05T02:47:10.466Z,12.32
2017-08-05T02:48:10.456Z,12.28
2017-08-05T02:49:10.512Z,12.28
2017-08-05T02:50:10.476Z,12.26
2017-08-05T02:51:10.385Z,12.28
2017-08-05T02:52:10.460Z,12.28
2017-08-05T02:53:10.440Z,12.36
2017-08-05T02:54:10.492Z,12.43
2017-08-05T02:55:10.389Z,12.46
2017-08-05T02:56:10.429Z,12.50
2017-08-05T02:57:10.441Z,12.53
2017-08-05T02:58:10.483Z,12.54
2017-08-05T02:59:10.478Z,12.55
2017-08-05T03:00:10.395Z,12.61
2017-08-05T03:01:10.427Z,12.64
2017-08-05T03:02:10.397Z,12.62
2017-08-05T03:03:10.429Z,12.60
2017-08-05T03:04:10.456Z,12.58
2017-08-05T03:05:10.492Z,12.58
2017-08-05T03:06:10.394Z,12.55
2017-08-05T03:07:10.446Z,12.48
2017-08-05T03:08:10.470Z,12.43
2017-08-05T03:09:10.460Z,12.39
2017-08-05T03:10:10.432Z,12.36
2017-08-05T03:11:10.420Z,12.32
2017-08-05T03:12:10.493Z,12.31
2017-08-05T03:13:10.489Z,12.28
2017-08-05T03:14:10.437Z,12.25
2017-08-05T03:15:10.496Z,12.20
2017-08-05T03:16:10.489Z,12.16
2017-08-05T03:17:10.435Z,12.16
2017-08-05T03:18:10.431Z,12.20
2017-08-05T03:19:10.437Z,12.25
2017-08-05T03:20:10.461Z,12.22
2017-08-05T03:21:10.497Z,12.20
2017-08-05T03:22:10.456Z,12.16
2017-08-05T03:23:10.436Z,12.13
2017-08-05T03:24:10.408Z,12.12
2017-08-05T03:25:10.405Z,12.09
2017-08-05T03:26:10.458Z,12.06
2017-08-05T03:27:10.406Z,12.05
2017-08-05T03:28:10.501Z,12.05
2017-08-05T03:29:10.464Z,12.06
2017-08-05T03:30:10.410Z,12.09
2017-08-05T03:31:10.474Z,12.13
2017-08-05T03:32:10.413Z,12.14
2017-08-05T03:33:10.412Z,12.14
2017-08-05T03:34:10.467Z,12.14
2017-08-05T03:35:10.465Z,12.14
2017-08-05T03:36:10.500Z,12.24
2017-08-05T03:37:10.361Z,12.24
2017-08-05T03:38:10.482Z,12.24
2017-08-05T03:39:10.480Z,12.28
2017-08-05T03:40:10.435Z,12.37
2017-08-05T03:41:10.409Z,12.44
2017-08-05T03:42:10.437Z,12.54
2017-08-05T03:43:10.431Z,12.55
2017-08-05T03:44:10.480Z,12.57
2017-08-05T03:45:10.371Z,12.57
2017-08-05T03:46:10.436Z,12.60
2017-08-05T03:47:10.446Z,12.61
2017-08-05T03:48:10.444Z,12.65
2017-08-05T03:49:10.416Z,12.71
2017-08-05T03:50:10.424Z,12.72
2017-08-05T03:51:10.514Z,12.73
2017-08-05T03:52:10.489Z,12.77
2017-08-05T03:53:10.453Z,12.83
2017-08-05T03:54:10.458Z,12.86
2017-08-05T03:55:10.460Z,12.91
2017-08-05T03:56:10.517Z,12.94
2017-08-05T03:57:10.478Z,12.95
2017-08-05T03:58:10.518Z,12.99
2017-08-05T03:59:10.456Z,13.05
2017-08-05T04:00:10.477Z,13.10
2017-08-05T04:01:10.477Z,13.14
2017-08-05T04:02:10.466Z,13.17
2017-08-05T04:03:10.434Z,13.17
2017-08-05T04:04:10.431Z,13.21
2017-08-05T04:05:10.427Z,13.21
2017-08-05T04:06:10.465Z,13.24
2017-08-05T04:07:10.433Z,13.25
2017-08-05T04:08:10.467Z,13.27
2017-08-05T04:09:10.494Z,13.29
2017-08-05T04:10:10.432Z,13.31
2017-08-05T04:11:10.504Z,13.34
2017-08-05T04:12:10.432Z,13.34
2017-08-05T04:13:10.460Z,13.36
2017-08-05T04:14:10.506Z,13.39
2017-08-05T04:15:10.490Z,13.40
2017-08-05T04:16:10.468Z,13.42
2017-08-05T04:17:10.497Z,13.45
2017-08-05T04:18:10.458Z,13.46
2017-08-05T04:19:10.413Z,13.47
2017-08-05T04:20:10.472Z,13.50
2017-08-05T04:21:10.405Z,13.51
2017-08-05T04:22:10.461Z,13.56
2017-08-05T04:23:10.432Z,13.59
2017-08-05T04:24:10.438Z,13.61
2017-08-05T04:25:10.434Z,13.64
2017-08-05T04:26:10.449Z,13.65
2017-08-05T04:27:10.435Z,13.68
2017-08-05T04:28:10.495Z,13.70
2017-08-05T04:29:10.497Z,13.72
2017-08-05T04:30:10.435Z,13.75
2017-08-05T04:31:10.496Z,13.77
2017-08-05T04:32:10.435Z,13.80
2017-08-05T04:33:10.503Z,13.84
2017-08-05T04:34:10.497Z,13.88
2017-08-05T04:35:10.496Z,13.91
2017-08-05T04:36:10.466Z,13.93
2017-08-05T04:37:10.499Z,13.95
2017-08-05T04:38:10.472Z,13.99
2017-08-05T04:39:10.438Z,14.00
2017-08-05T04:40:10.437Z,14.04
2017-08-05T04:41:10.442Z,14.06
2017-08-05T04:42:10.441Z,14.07
2017-08-05T04:43:10.472Z,14.11
2017-08-05T04:44:10.441Z,14.14
2017-08-05T04:45:10.474Z,14.18
2017-08-05T04:46:10.440Z,14.21
2017-08-05T04:47:10.482Z,14.27
2017-08-05T04:48:10.545Z,14.33
2017-08-05T04:49:10.475Z,14.35
2017-08-05T04:50:10.455Z,14.40
2017-08-05T04:51:10.522Z,14.47
2017-08-05T04:52:10.515Z,14.49
2017-08-05T04:53:10.481Z,14.51
2017-08-05T04:54:10.469Z,14.55
2017-08-05T04:55:10.482Z,14.60
2017-08-05T04:56:10.525Z,14.64
2017-08-05T04:57:10.549Z,14.66
2017-08-05T04:58:10.518Z,14.69
2017-08-05T04:59:10.528Z,14.73
2017-08-05T05:00:10.466Z,14.75
2017-08-05T05:01:10.523Z,14.78
2017-08-05T05:02:10.551Z,14.79
2017-08-05T05:03:10.515Z,14.80
2017-08-05T05:04:10.560Z,14.82
2017-08-05T05:05:10.497Z,14.82
2017-08-05T05:06:10.502Z,14.83
2017-08-05T05:07:10.504Z,14.82
2017-08-05T05:08:10.538Z,14.83
2017-08-05T05:09:10.561Z,14.82
2017-08-05T05:10:10.538Z,14.83
2017-08-05T05:11:10.557Z,14.82
2017-08-05T05:12:10.541Z,14.83
2017-08-05T05:13:10.557Z,14.83
2017-08-05T05:14:10.543Z,14.83
2017-08-05T05:15:10.561Z,14.83
2017-08-05T05:16:10.489Z,14.86
2017-08-05T05:17:10.543Z,14.84
2017-08-05T05:18:10.511Z,14.84
2017-08-05T05:19:10.560Z,14.86
2017-08-05T05:20:10.504Z,14.84
2017-08-05T05:22:10.510Z,14.87
2017-08-05T05:23:10.470Z,14.91
2017-08-05T05:24:10.504Z,14.94
2017-08-05T05:25:10.499Z,14.94
2017-08-05T05:26:10.510Z,14.96
2017-08-05T05:27:10.465Z,14.98
2017-08-05T05:28:10.529Z,14.98
2017-08-05T05:29:10.496Z,15.02
2017-08-05T05:30:10.499Z,15.03
2017-08-05T05:31:10.471Z,15.06
2017-08-05T05:32:10.532Z,15.06
2017-08-05T05:33:10.533Z,15.08
2017-08-05T05:34:10.468Z,15.11
2017-08-05T05:35:10.504Z,15.14
2017-08-05T05:36:10.502Z,15.15
2017-08-05T05:37:10.530Z,15.21
2017-08-05T05:38:10.473Z,15.25
2017-08-05T05:39:10.509Z,15.28
2017-08-05T05:40:10.474Z,15.31
2017-08-05T05:41:10.477Z,15.32
2017-08-05T05:42:10.537Z,15.37
2017-08-05T05:43:10.499Z,15.39
2017-08-05T05:44:10.539Z,15.42
2017-08-05T05:45:10.475Z,15.43
2017-08-05T05:46:10.568Z,15.47
2017-08-05T05:47:10.528Z,15.51
2017-08-05T05:48:10.487Z,15.55
2017-08-05T05:49:10.513Z,15.58
2017-08-05T05:50:10.548Z,15.64
2017-08-05T05:51:10.547Z,15.65
2017-08-05T05:52:10.577Z,15.70
2017-08-05T05:53:10.566Z,15.75
2017-08-05T05:54:10.501Z,15.80
2017-08-05T05:55:10.525Z,15.83
2017-08-05T05:56:10.566Z,15.86
2017-08-05T05:57:10.495Z,15.86
2017-08-05T05:58:10.493Z,15.90
2017-08-05T05:59:10.569Z,15.94
2017-08-05T06:00:10.678Z,15.97
2017-08-05T06:01:10.566Z,15.99
2017-08-05T06:02:10.504Z,16.02
2017-08-05T06:03:10.562Z,16.03
2017-08-05T06:04:10.547Z,16.00
2017-08-05T06:05:10.600Z,15.95
2017-08-05T06:06:10.560Z,15.95
2017-08-05T06:07:10.489Z,15.95
2017-08-05T06:08:10.554Z,15.94
2017-08-05T06:09:10.489Z,15.97
2017-08-05T06:10:10.588Z,15.97
2017-08-05T06:11:10.491Z,15.99
2017-08-05T06:12:10.493Z,16.02
2017-08-05T06:13:10.573Z,16.02
2017-08-05T06:14:10.556Z,16.02
2017-08-05T06:15:10.494Z,16.02
2017-08-05T06:16:10.525Z,16.02
2017-08-05T06:17:10.505Z,16.02
2017-08-05T06:18:10.498Z,16.02
2017-08-05T06:19:10.506Z,16.03
2017-08-05T06:20:10.445Z,16.03
2017-08-05T06:21:10.526Z,16.02
2017-08-05T06:22:10.509Z,16.00
2017-08-05T06:23:10.437Z,15.99
2017-08-05T06:24:10.423Z,15.97
2017-08-05T06:25:10.498Z,15.95
2017-08-05T06:26:10.502Z,15.95
2017-08-05T06:27:10.599Z,15.94
2017-08-05T06:28:10.509Z,15.91
2017-08-05T06:29:10.516Z,15.88
2017-08-05T06:30:10.511Z,15.86
2017-08-05T06:31:10.603Z,15.86
2017-08-05T06:32:10.570Z,15.83
2017-08-05T06:33:10.601Z,15.83
2017-08-05T06:34:10.513Z,15.82
2017-08-05T06:35:10.586Z,15.82
2017-08-05T06:36:10.518Z,15.76
2017-08-05T06:37:10.605Z,15.75
2017-08-05T06:38:10.555Z,15.75
2017-08-05T06:39:10.608Z,15.73
2017-08-05T06:40:10.541Z,15.73
2017-08-05T06:41:10.593Z,15.70
2017-08-05T06:42:10.540Z,15.69
2017-08-05T06:43:10.552Z,15.65
2017-08-05T06:44:10.612Z,15.64
2017-08-05T06:45:10.591Z,15.64
2017-08-05T06:46:10.595Z,15.64
2017-08-05T06:47:10.580Z,15.64
2017-08-05T06:48:10.564Z,15.64
2017-08-05T06:49:10.596Z,15.64
2017-08-05T06:50:10.553Z,15.62
2017-08-05T06:51:10.517Z,15.58
2017-08-05T06:52:10.598Z,15.55
2017-08-05T06:53:10.554Z,15.54
2017-08-05T06:54:10.557Z,15.54
2017-08-05T06:55:10.579Z,15.54
2017-08-05T06:56:10.547Z,15.54
2017-08-05T06:57:10.582Z,15.55
2017-08-05T06:58:10.524Z,15.57
2017-08-05T06:59:10.525Z,15.55
2017-08-05T07:00:10.523Z,15.55
2017-08-05T07:01:10.561Z,15.55
2017-08-05T07:02:10.585Z,15.55
2017-08-05T07:03:10.587Z,15.54
2017-08-05T07:04:10.526Z,15.54
2017-08-05T07:05:10.589Z,15.55
2017-08-05T07:06:10.590Z,15.57
2017-08-05T07:07:10.622Z,15.59
2017-08-05T07:08:10.603Z,15.58
2017-08-05T07:09:10.600Z,15.61
2017-08-05T07:10:10.592Z,15.64
2017-08-05T07:11:10.539Z,15.68
2017-08-05T07:12:10.602Z,15.65
2017-08-05T07:13:10.570Z,15.65
2017-08-05T07:14:10.573Z,15.68
2017-08-05T07:15:10.535Z,15.69
2017-08-05T07:16:10.626Z,15.69
2017-08-05T07:17:10.654Z,15.70
2017-08-05T07:18:10.566Z,15.70
2017-08-05T07:19:10.560Z,15.72
2017-08-05T07:20:10.598Z,15.72
2017-08-05T07:21:10.579Z,15.76
2017-08-05T07:22:10.566Z,15.77
2017-08-05T07:23:10.528Z,15.75
2017-08-05T07:24:10.599Z,15.72
2017-08-05T07:25:10.605Z,15.69
2017-08-05T07:26:10.598Z,15.68
2017-08-05T07:27:10.538Z,15.68
2017-08-05T07:28:10.614Z,15.70
2017-08-05T07:29:10.550Z,15.75
2017-08-05T07:30:10.569Z,15.73
2017-08-05T07:31:10.608Z,15.68
2017-08-05T07:32:10.554Z,15.70
2017-08-05T07:33:10.644Z,15.68
2017-08-05T07:34:10.624Z,15.73
2017-08-05T07:35:10.606Z,15.72
2017-08-05T07:36:10.589Z,15.73
2017-08-05T07:37:10.573Z,15.68
2017-08-05T07:38:10.612Z,15.65
2017-08-05T07:39:10.573Z,15.64
2017-08-05T07:40:10.551Z,15.68
2017-08-05T07:41:10.551Z,15.75
2017-08-05T07:42:10.586Z,15.76
2017-08-05T07:43:10.639Z,15.70
2017-08-05T07:44:10.622Z,15.65
2017-08-05T07:45:10.552Z,15.66
2017-08-05T07:46:10.624Z,15.65
2017-08-05T07:47:10.576Z,15.65
2017-08-05T07:48:10.584Z,15.62
2017-08-05T07:49:10.650Z,15.66
2017-08-05T07:50:10.654Z,15.73
2017-08-05T07:51:10.613Z,15.73
2017-08-05T07:52:10.566Z,15.72
2017-08-05T07:53:10.615Z,15.66
2017-08-05T07:54:10.599Z,15.66
2017-08-05T07:55:10.596Z,15.62
2017-08-05T07:56:10.600Z,15.65
2017-08-05T07:57:10.611Z,15.61
2017-08-05T07:58:10.616Z,15.55
2017-08-05T07:59:10.559Z,15.55
2017-08-05T08:00:10.590Z,15.57
2017-08-05T08:01:10.629Z,15.57
2017-08-05T08:02:10.556Z,15.58
2017-08-05T08:03:10.623Z,15.58
2017-08-05T08:04:10.558Z,15.55
2017-08-05T08:05:10.619Z,15.55
2017-08-05T08:06:10.560Z,15.55
2017-08-05T08:07:10.595Z,15.55
2017-08-05T08:08:10.547Z,15.48
2017-08-05T08:09:10.563Z,15.50
2017-08-05T08:10:10.573Z,15.57
2017-08-05T08:11:10.586Z,15.62
2017-08-05T08:12:10.584Z,15.68
2017-08-05T08:13:10.585Z,15.69
2017-08-05T08:14:10.563Z,15.72
2017-08-05T08:15:10.585Z,15.69
2017-08-05T08:16:10.509Z,15.72
2017-08-05T08:17:10.550Z,15.65
2017-08-05T08:18:10.565Z,15.68
2017-08-05T08:19:10.629Z,15.70
2017-08-05T08:20:10.565Z,15.75
2017-08-05T08:21:10.572Z,15.79
2017-08-05T08:22:10.604Z,15.86
2017-08-05T08:23:10.640Z,15.86
2017-08-05T08:24:10.571Z,15.88
2017-08-05T08:25:10.569Z,15.94
2017-08-05T08:26:10.632Z,15.87
2017-08-05T08:27:10.634Z,15.84
2017-08-05T08:28:10.573Z,15.83
2017-08-05T08:29:10.572Z,15.80
2017-08-05T08:30:10.574Z,15.83
2017-08-05T08:31:10.579Z,15.77
2017-08-05T08:32:10.605Z,15.76
2017-08-05T08:33:10.607Z,15.73
2017-08-05T08:34:10.687Z,15.70
2017-08-05T08:35:10.574Z,15.66
2017-08-05T08:36:10.643Z,15.66
2017-08-05T08:37:10.620Z,15.69
2017-08-05T08:38:10.614Z,15.70
2017-08-05T08:39:10.647Z,15.70
2017-08-05T08:40:10.642Z,15.68
2017-08-05T08:41:10.623Z,15.75
2017-08-05T08:42:10.652Z,15.79
2017-08-05T08:43:10.617Z,15.84
2017-08-05T08:44:10.684Z,15.87
2017-08-05T08:45:10.718Z,15.91
2017-08-05T08:46:10.655Z,15.90
2017-08-05T08:47:10.597Z,15.93
2017-08-05T08:48:10.595Z,15.93
2017-08-05T08:49:10.680Z,15.93
2017-08-05T08:50:10.687Z,15.94
2017-08-05T08:51:10.615Z,15.97
2017-08-05T08:52:10.614Z,15.99
2017-08-05T08:53:10.596Z,15.90
2017-08-05T08:54:10.631Z,15.87
2017-08-05T08:55:10.665Z,15.91
2017-08-05T08:56:10.591Z,15.95
2017-08-05T08:57:10.599Z,16.03
2017-08-05T08:58:10.655Z,16.10
2017-08-05T08:59:10.651Z,16.16
2017-08-05T09:00:10.705Z,16.14
2017-08-05T09:01:10.627Z,16.17
2017-08-05T09:02:10.601Z,16.18
2017-08-05T09:03:10.664Z,16.17
2017-08-05T09:04:10.674Z,16.18
2017-08-05T09:05:10.638Z,16.14
2017-08-05T09:06:10.637Z,16.11
2017-08-05T09:07:10.628Z,16.09
2017-08-05T09:08:10.659Z,16.02
2017-08-05T09:09:10.642Z,15.95
2017-08-05T09:10:10.616Z,15.90
2017-08-05T09:11:10.599Z,15.93
2017-08-05T09:12:10.664Z,15.93
2017-08-05T09:13:10.665Z,15.97
2017-08-05T09:14:10.602Z,15.95
2017-08-05T09:15:10.602Z,16.00
2017-08-05T09:16:10.631Z,15.94
2017-08-05T09:17:10.606Z,15.90
2017-08-05T09:18:10.600Z,15.90
2017-08-05T09:19:10.599Z,15.95
2017-08-05T09:20:10.635Z,16.00
2017-08-05T09:21:10.634Z,16.05
2017-08-05T09:22:10.639Z,16.00
2017-08-05T09:23:10.681Z,15.86
2017-08-05T09:24:10.633Z,15.83
2017-08-05T09:25:10.663Z,15.79
2017-08-05T09:26:10.606Z,15.69
2017-08-05T09:27:10.606Z,15.76
2017-08-05T09:28:10.634Z,15.80
2017-08-05T09:29:10.630Z,15.86
2017-08-05T09:30:10.652Z,15.86
2017-08-05T09:31:10.638Z,15.83
2017-08-05T09:32:10.631Z,15.83
2017-08-05T09:33:10.644Z,15.77
2017-08-05T09:34:10.639Z,15.75
2017-08-05T09:35:10.765Z,15.70
2017-08-05T09:36:10.647Z,15.69
2017-08-05T09:37:10.631Z,15.68
2017-08-05T09:38:10.716Z,15.68
2017-08-05T09:39:10.661Z,15.69
2017-08-05T09:40:10.622Z,15.66
2017-08-05T09:41:10.659Z,15.64
2017-08-05T09:42:10.656Z,15.62
2017-08-05T09:43:10.751Z,15.65
2017-08-05T09:44:10.698Z,15.65
2017-08-05T09:45:10.657Z,15.68
2017-08-05T09:46:10.659Z,15.70
2017-08-05T09:47:10.698Z,15.77
2017-08-05T09:48:10.626Z,15.79
2017-08-05T09:49:10.688Z,15.83
2017-08-05T09:50:10.704Z,15.83
2017-08-05T09:51:10.669Z,15.79
2017-08-05T09:52:10.660Z,15.76
2017-08-05T09:53:10.695Z,15.79
2017-08-05T09:54:10.635Z,15.77
2017-08-05T09:55:10.630Z,15.77
2017-08-05T09:56:10.626Z,15.76
2017-08-05T09:57:10.704Z,15.77
2017-08-05T09:58:10.700Z,15.75
2017-08-05T09:59:10.702Z,15.77
2017-08-05T10:00:10.731Z,15.80
2017-08-05T10:01:10.691Z,15.77
2017-08-05T10:02:10.639Z,15.80
2017-08-05T10:03:10.695Z,15.80
2017-08-05T10:04:10.692Z,15.82
2017-08-05T10:05:10.672Z,15.80
2017-08-05T10:06:10.710Z,15.82
2017-08-05T10:07:10.674Z,15.79
2017-08-05T10:08:10.684Z,15.83
2017-08-05T10:09:10.715Z,15.87
2017-08-05T10:10:10.696Z,15.90
2017-08-05T10:11:10.671Z,15.91
2017-08-05T10:12:10.674Z,15.91
2017-08-05T10:13:10.723Z,15.93
2017-08-05T10:14:10.643Z,15.87
2017-08-05T10:15:10.679Z,15.86
2017-08-05T10:16:10.645Z,15.86
2017-08-05T10:17:10.673Z,15.84
2017-08-05T10:18:10.681Z,15.82
2017-08-05T10:19:10.706Z,15.80
2017-08-05T10:20:10.708Z,15.79
2017-08-05T10:21:10.717Z,15.80
2017-08-05T10:22:10.709Z,15.83
2017-08-05T10:23:10.688Z,15.86
2017-08-05T10:24:10.692Z,15.87
2017-08-05T10:25:10.649Z,15.90
2017-08-05T10:26:10.708Z,15.88
2017-08-05T10:27:10.677Z,15.90
2017-08-05T10:28:10.685Z,15.93
2017-08-05T10:29:10.709Z,15.93
2017-08-05T10:30:10.717Z,15.93
2017-08-05T10:31:10.687Z,15.95
2017-08-05T10:32:10.752Z,15.97
2017-08-05T10:33:10.710Z,15.97
2017-08-05T10:34:10.750Z,15.95
2017-08-05T10:35:10.695Z,15.93
2017-08-05T10:36:10.697Z,15.91
2017-08-05T10:37:10.749Z,15.94
2017-08-05T10:38:10.659Z,15.97
2017-08-05T10:39:10.748Z,16.02
2017-08-05T10:40:10.713Z,16.06
2017-08-05T10:41:10.752Z,16.06
2017-08-05T10:42:10.748Z,16.03
2017-08-05T10:43:10.696Z,15.99
2017-08-05T10:44:10.717Z,15.99
2017-08-05T10:45:10.690Z,16.00
2017-08-05T10:46:10.667Z,16.00
2017-08-05T10:47:10.659Z,15.94
2017-08-05T10:48:10.697Z,15.91
2017-08-05T10:49:10.686Z,15.90
2017-08-05T10:50:10.699Z,15.91
2017-08-05T10:51:10.759Z,15.94
2017-08-05T10:52:10.729Z,15.97
2017-08-05T10:53:10.729Z,15.97
2017-08-05T10:54:10.699Z,15.99
2017-08-05T10:55:10.703Z,15.97
2017-08-05T10:56:10.693Z,15.95
2017-08-05T10:57:10.669Z,15.97
2017-08-05T10:58:10.692Z,15.95
2017-08-05T10:59:10.689Z,15.95
2017-08-05T11:00:10.723Z,15.94
2017-08-05T11:01:10.729Z,15.90
2017-08-05T11:02:10.691Z,15.88
2017-08-05T11:03:10.725Z,15.86
2017-08-05T11:04:10.661Z,15.86
2017-08-05T11:05:10.730Z,15.88
2017-08-05T11:06:10.662Z,15.87
2017-08-05T11:07:10.692Z,15.86
2017-08-05T11:08:10.667Z,15.86
2017-08-05T11:09:10.733Z,15.87
2017-08-05T11:10:10.666Z,15.87
2017-08-05T11:11:10.668Z,15.90
2017-08-05T11:12:10.735Z,15.88
2017-08-05T11:13:10.673Z,15.88
2017-08-05T11:14:10.735Z,15.94
2017-08-05T11:15:10.675Z,15.97
2017-08-05T11:16:10.672Z,16.00
2017-08-05T11:17:10.700Z,16.03
2017-08-05T11:19:10.735Z,16.10
2017-08-05T11:20:10.668Z,16.11
2017-08-05T11:21:10.734Z,16.18
2017-08-05T11:22:10.676Z,16.27
2017-08-05T11:23:10.675Z,16.38
2017-08-05T11:24:10.705Z,16.54
2017-08-05T11:25:10.672Z,16.62
2017-08-05T11:26:10.745Z,16.70
2017-08-05T11:27:10.703Z,16.72
2017-08-05T11:28:10.745Z,16.76
2017-08-05T11:29:10.757Z,16.84
2017-08-05T11:30:10.749Z,16.91
2017-08-05T11:31:10.764Z,16.98
2017-08-05T11:32:10.782Z,16.99
2017-08-05T11:33:10.775Z,17.01
2017-08-05T11:34:10.715Z,17.02
2017-08-05T11:35:10.759Z,17.06
2017-08-05T11:36:10.756Z,17.10
2017-08-05T11:37:10.754Z,16.97
2017-08-05T11:38:10.721Z,16.91
2017-08-05T11:39:10.694Z,16.92
2017-08-05T11:40:10.726Z,16.94
2017-08-05T11:41:10.733Z,16.91
2017-08-05T11:42:10.693Z,16.84
2017-08-05T11:43:10.734Z,16.81
2017-08-05T11:44:10.697Z,16.76
2017-08-05T11:45:10.696Z,16.72
2017-08-05T11:46:10.696Z,16.77
2017-08-05T11:47:10.696Z,16.77
2017-08-05T11:48:10.786Z,16.72
2017-08-05T11:49:10.759Z,16.70
2017-08-05T11:50:10.705Z,16.63
2017-08-05T11:51:10.700Z,16.66
2017-08-05T11:52:10.775Z,16.72
2017-08-05T11:53:10.706Z,16.76
2017-08-05T11:54:10.767Z,16.77
2017-08-05T11:55:10.708Z,16.80
2017-08-05T11:56:10.740Z,16.79
2017-08-05T11:57:10.721Z,16.74
2017-08-05T11:58:10.798Z,16.72
2017-08-05T11:59:10.757Z,16.77
2017-08-05T12:00:10.727Z,16.76
2017-08-05T12:01:10.723Z,16.74
2017-08-05T12:02:10.776Z,16.74
2017-08-05T12:03:10.723Z,16.76
2017-08-05T12:04:10.736Z,16.79
2017-08-05T12:05:10.729Z,16.87
2017-08-05T12:06:10.735Z,16.94
2017-08-05T12:07:10.770Z,17.01
2017-08-05T12:08:10.703Z,17.10
2017-08-05T12:09:10.767Z,17.33
2017-08-05T12:10:10.744Z,17.50
2017-08-05T12:11:10.746Z,17.60
2017-08-05T12:12:10.785Z,17.55
2017-08-05T12:13:10.741Z,17.51
2017-08-05T12:14:10.789Z,17.65
2017-08-05T12:15:10.743Z,17.66
2017-08-05T12:16:10.800Z,17.55
2017-08-05T12:17:10.717Z,17.58
2017-08-05T12:18:10.753Z,17.51
2017-08-05T12:19:10.707Z,17.55
2017-08-05T12:20:10.739Z,17.60
2017-08-05T12:21:10.772Z,17.65
2017-08-05T12:22:10.712Z,17.64
2017-08-05T12:23:10.741Z,17.54
2017-08-05T12:24:10.742Z,17.53
2017-08-05T12:25:10.773Z,17.60
2017-08-05T12:26:10.713Z,17.68
2017-08-05T12:27:10.772Z,17.75
2017-08-05T12:28:10.707Z,17.79
2017-08-05T12:29:10.816Z,17.79
2017-08-05T12:30:10.724Z,17.95
2017-08-05T12:31:10.750Z,18.09
2017-08-05T12:32:10.747Z,18.31
2017-08-05T12:33:10.731Z,18.54
2017-08-05T12:34:10.794Z,18.65
2017-08-05T12:35:10.785Z,18.76
2017-08-05T12:36:10.787Z,18.80
2017-08-05T12:37:10.821Z,18.72
2017-08-05T12:38:10.813Z,18.83
2017-08-05T12:39:10.730Z,18.81
2017-08-05T12:40:10.795Z,18.86
2017-08-05T12:41:10.765Z,18.88
2017-08-05T12:42:10.765Z,18.86
2017-08-05T12:43:10.770Z,18.81
2017-08-05T12:44:10.762Z,18.62
2017-08-05T12:45:10.827Z,18.54
2017-08-05T12:46:10.738Z,18.41
2017-08-05T12:47:10.802Z,18.34
2017-08-05T12:48:10.806Z,18.34
2017-08-05T12:49:10.790Z,18.24
2017-08-05T12:50:10.739Z,18.14
2017-08-05T12:51:10.737Z,18.09
2017-08-05T12:52:10.735Z,18.16
2017-08-05T12:53:10.804Z,18.14
2017-08-05T12:54:10.798Z,18.10